createdAt,value
2023-04-27T00:01:17.586Z,100.00
2023-04-27T00:04:04.440Z,100.00
2023-04-27T00:06:49.560Z,100.00
2023-04-27T00:09:34.531Z,100.00
2023-04-27T00:12:19.384Z,100.00
2023-04-27T00:15:05.944Z,100.00
2023-04-27T00:17:51.306Z,100.00
2023-04-27T00:20:36.500Z,100.00
2023-04-27T00:23:21.629Z,100.00
2023-04-27T00:26:06.669Z,100.00
2023-04-27T00:28:51.596Z,100.00
2023-04-27T00:31:36.380Z,100.00
2023-04-27T00:34:21.588Z,100.00
2023-04-27T00:37:06.340Z,100.00
2023-04-27T00:39:51.182Z,100.00
2023-04-27T00:42:36.457Z,100.00
2023-04-27T00:45:21.826Z,100.00
2023-04-27T00:48:06.840Z,100.00
2023-04-27T00:50:51.854Z,100.00
2023-04-27T00:53:37.496Z,100.00
2023-04-27T00:56:22.689Z,100.00
2023-04-27T00:59:07.575Z,100.00
2023-04-27T01:01:53.165Z,100.00
2023-04-27T01:04:38.046Z,100.00
2023-04-27T01:07:26.695Z,100.00
2023-04-27T01:10:11.836Z,100.00
2023-04-27T01:12:57.429Z,100.00
2023-04-27T01:15:42.319Z,100.00
2023-04-27T01:18:27.237Z,100.00
2023-04-27T01:21:12.335Z,100.00
2023-04-27T01:23:57.374Z,100.00
2023-04-27T01:26:42.533Z,100.00
2023-04-27T01:29:27.297Z,100.00
2023-04-27T01:32:12.806Z,100.00
2023-04-27T01:34:57.798Z,100.00
2023-04-27T01:37:42.818Z,100.00
2023-04-27T01:40:27.657Z,100.00
2023-04-27T01:43:12.790Z,100.00
2023-04-27T01:46:09.175Z,100.00
2023-04-27T01:48:54.252Z,100.00
2023-04-27T01:51:39.195Z,100.00
2023-04-27T01:54:25.599Z,100.00
2023-04-27T01:57:12.401Z,100.00
2023-04-27T01:59:57.315Z,100.00
2023-04-27T02:02:42.430Z,100.00
2023-04-27T02:05:27.704Z,100.00
2023-04-27T02:08:12.708Z,100.00
2023-04-27T02:10:57.601Z,100.00
2023-04-27T02:13:42.676Z,100.00
2023-04-27T02:16:27.463Z,100.00
2023-04-27T02:19:12.774Z,100.00
2023-04-27T02:21:57.899Z,100.00
2023-04-27T02:24:42.941Z,100.00
2023-04-27T02:27:27.798Z,100.00
2023-04-27T02:30:13.958Z,100.00
2023-04-27T02:33:00.636Z,100.00
2023-04-27T02:35:45.947Z,100.00
2023-04-27T02:38:31.171Z,100.00
2023-04-27T02:41:16.003Z,100.00
2023-04-27T02:44:00.787Z,100.00
2023-04-27T02:46:45.788Z,100.00
2023-04-27T02:49:30.594Z,100.00
2023-04-27T02:52:15.820Z,100.00
2023-04-27T02:55:01.024Z,100.00
2023-04-27T02:57:46.324Z,100.00
2023-04-27T03:00:31.256Z,100.00
2023-04-27T03:03:16.644Z,100.00
2023-04-27T03:06:01.775Z,100.00
2023-04-27T03:08:46.891Z,100.00
2023-04-27T03:11:31.806Z,100.00
2023-04-27T03:14:16.854Z,100.00
2023-04-27T03:17:03.078Z,100.00
2023-04-27T03:19:49.147Z,100.00
2023-04-27T03:22:34.297Z,100.00
2023-04-27T03:25:19.125Z,100.00
2023-04-27T03:28:04.465Z,100.00
2023-04-27T03:30:49.567Z,100.00
2023-04-27T03:33:35.047Z,100.00
2023-04-27T03:36:19.805Z,100.00
2023-04-27T03:39:04.806Z,100.00
2023-04-27T03:41:49.608Z,100.00
2023-04-27T03:44:36.332Z,100.00
2023-04-27T03:47:21.796Z,100.00
2023-04-27T03:50:07.196Z,100.00
2023-04-27T03:52:52.271Z,100.00
2023-04-27T03:55:42.156Z,100.00
2023-04-27T03:58:27.002Z,100.00
2023-04-27T04:01:12.003Z,100.00
2023-04-27T04:03:57.062Z,100.00
2023-04-27T04:06:41.887Z,100.00
2023-04-27T04:09:27.324Z,100.00
2023-04-27T04:12:13.455Z,100.00
2023-04-27T04:14:58.606Z,100.00
2023-04-27T04:17:43.895Z,100.00
2023-04-27T04:20:28.977Z,100.00
2023-04-27T04:23:14.206Z,100.00
2023-04-27T04:25:58.947Z,100.00
2023-04-27T04:28:44.143Z,100.00
2023-04-27T04:31:29.633Z,100.00
2023-04-27T04:34:15.719Z,100.00
2023-04-27T04:37:00.558Z,100.00
2023-04-27T04:39:45.679Z,100.00
2023-04-27T04:42:30.447Z,100.00
2023-04-27T04:45:15.635Z,100.00
2023-04-27T04:48:03.958Z,100.00
2023-04-27T04:50:48.967Z,100.00
2023-04-27T04:53:33.717Z,100.00
2023-04-27T04:56:18.706Z,100.00
2023-04-27T04:59:03.830Z,100.00
2023-04-27T05:01:48.603Z,100.00
2023-04-27T05:04:33.807Z,100.00
2023-04-27T05:07:23.261Z,100.00
2023-04-27T05:10:10.011Z,100.00
2023-04-27T05:12:55.223Z,100.00
2023-04-27T05:15:40.888Z,100.00
2023-04-27T05:18:25.949Z,100.00
2023-04-27T05:21:15.556Z,100.00
2023-04-27T05:24:00.723Z,100.00
2023-04-27T05:26:45.601Z,100.00
2023-04-27T05:29:30.458Z,100.00
2023-04-27T05:32:15.689Z,100.00
2023-04-27T05:35:00.653Z,100.00
2023-04-27T05:37:45.679Z,100.00
2023-04-27T05:40:30.590Z,100.00
2023-04-27T05:43:15.647Z,100.00
2023-04-27T05:46:00.800Z,100.00
2023-04-27T05:48:45.754Z,100.00
2023-04-27T05:51:32.517Z,100.00
2023-04-27T05:54:17.440Z,100.00
2023-04-27T05:57:02.331Z,100.00
2023-04-27T05:59:47.573Z,100.00
2023-04-27T06:02:32.674Z,100.00
2023-04-27T06:05:18.441Z,100.00
2023-04-27T06:08:03.285Z,100.00
2023-04-27T06:10:49.808Z,100.00
2023-04-27T06:13:34.638Z,100.00
2023-04-27T06:16:20.745Z,100.00
2023-04-27T06:19:06.271Z,100.00
2023-04-27T06:21:51.270Z,100.00
2023-04-27T06:24:36.438Z,100.00
2023-04-27T06:27:21.425Z,100.00
2023-04-27T06:30:07.739Z,100.00
2023-04-27T06:32:53.007Z,100.00
2023-04-27T06:35:37.932Z,100.00
2023-04-27T06:38:23.014Z,100.00
2023-04-27T06:41:07.899Z,100.00
2023-04-27T06:43:53.726Z,100.00
2023-04-27T06:46:39.123Z,100.00
2023-04-27T06:49:24.285Z,100.00
2023-04-27T06:52:09.568Z,100.00
2023-04-27T06:54:54.327Z,100.00
2023-04-27T06:57:39.461Z,100.00
2023-04-27T07:00:24.490Z,100.00
2023-04-27T07:03:09.502Z,100.00
2023-04-27T07:05:56.482Z,100.00
2023-04-27T07:08:41.334Z,100.00
2023-04-27T07:11:26.439Z,100.00
2023-04-27T07:14:11.450Z,100.00
2023-04-27T07:16:56.352Z,100.00
2023-04-27T07:19:41.682Z,100.00
2023-04-27T07:22:26.815Z,100.00
2023-04-27T07:25:11.940Z,100.00
2023-04-27T07:27:56.859Z,100.00
2023-04-27T07:30:42.544Z,100.00
2023-04-27T07:33:27.791Z,100.00
2023-04-27T07:36:12.547Z,100.00
2023-04-27T07:38:58.590Z,100.00
2023-04-27T07:41:43.498Z,100.00
2023-04-27T07:44:28.694Z,100.00
2023-04-27T07:47:13.822Z,100.00
2023-04-27T07:49:58.650Z,100.00
2023-04-27T07:52:43.672Z,100.00
2023-04-27T07:55:28.687Z,100.00
2023-04-27T07:58:13.754Z,100.00
2023-04-27T08:00:58.563Z,100.00
2023-04-27T08:03:43.860Z,100.00
2023-04-27T08:06:29.864Z,86.14
2023-04-27T08:09:15.628Z,87.00
2023-04-27T08:12:02.838Z,87.45
2023-04-27T08:14:47.725Z,82.55
2023-04-27T08:17:32.526Z,84.26
2023-04-27T08:20:17.574Z,82.79
2023-04-27T08:23:02.484Z,69.02
2023-04-27T08:25:48.408Z,63.99
2023-04-27T08:28:33.519Z,61.80
2023-04-27T08:31:18.692Z,55.04
2023-04-27T08:34:03.675Z,49.99
2023-04-27T08:36:48.415Z,49.17
2023-04-27T08:39:33.256Z,45.74
2023-04-27T08:42:18.324Z,42.86
2023-04-27T08:45:04.393Z,44.99
2023-04-27T08:47:49.487Z,47.43
2023-04-27T08:50:38.600Z,49.96
2023-04-27T08:53:23.653Z,46.56
2023-04-27T08:56:08.403Z,45.35
2023-04-27T08:58:53.363Z,45.74
2023-04-27T09:01:44.762Z,48.15
2023-04-27T09:04:41.873Z,43.59
2023-04-27T09:07:28.790Z,45.21
2023-04-27T09:10:15.358Z,49.47
2023-04-27T09:13:00.955Z,46.54
2023-04-27T09:15:48.753Z,46.60
2023-04-27T09:18:37.969Z,47.77
2023-04-27T09:21:24.958Z,44.69
2023-04-27T09:24:13.761Z,42.44
2023-04-27T09:27:00.807Z,44.40
2023-04-27T09:29:46.118Z,42.65
2023-04-27T09:32:31.148Z,39.15
2023-04-27T09:35:29.090Z,39.56
2023-04-27T09:38:15.885Z,46.27
2023-04-27T09:41:02.977Z,45.21
2023-04-27T09:43:48.748Z,42.17
2023-04-27T09:46:34.178Z,50.12
2023-04-27T09:49:20.500Z,52.65
2023-04-27T09:52:05.670Z,46.33
2023-04-27T09:54:50.843Z,45.13
2023-04-27T09:57:44.900Z,42.14
2023-04-27T10:00:59.067Z,44.90
2023-04-27T10:04:35.120Z,45.98
2023-04-27T10:07:20.518Z,44.84
2023-04-27T10:10:05.856Z,50.15
2023-04-27T10:13:23.742Z,52.03
2023-04-27T10:16:16.718Z,48.85
2023-04-27T10:19:09.905Z,50.14
2023-04-27T10:22:03.700Z,46.95
2023-04-27T10:24:50.474Z,47.49
2023-04-27T10:27:39.578Z,44.73
2023-04-27T10:30:26.362Z,42.47
2023-04-27T10:33:15.834Z,44.96
2023-04-27T10:36:00.875Z,46.85
2023-04-27T10:38:46.531Z,49.00
2023-04-27T10:41:35.458Z,44.06
2023-04-27T10:44:27.399Z,45.62
2023-04-27T10:47:18.502Z,42.64
2023-04-27T10:50:05.740Z,47.11
2023-04-27T10:52:51.132Z,42.55
2023-04-27T10:55:37.320Z,41.19
2023-04-27T10:58:28.142Z,40.96
2023-04-27T11:01:27.215Z,41.89
2023-04-27T11:04:12.940Z,45.29
2023-04-27T11:06:58.576Z,46.22
2023-04-27T11:09:43.595Z,46.00
2023-04-27T11:12:28.391Z,48.46
2023-04-27T11:15:14.133Z,46.02
2023-04-27T11:18:05.518Z,46.72
2023-04-27T11:21:05.600Z,46.51
2023-04-27T11:23:50.733Z,48.55
2023-04-27T11:26:35.846Z,46.88
2023-04-27T11:29:21.220Z,49.25
2023-04-27T11:32:06.424Z,45.82
2023-04-27T11:34:55.597Z,42.25
2023-04-27T11:37:42.340Z,43.77
2023-04-27T11:40:28.929Z,48.61
2023-04-27T11:43:14.313Z,49.26
2023-04-27T11:46:03.393Z,49.67
2023-04-27T11:48:48.923Z,53.16
2023-04-27T11:51:34.652Z,47.82
2023-04-27T11:54:19.813Z,48.53
2023-04-27T11:57:06.003Z,49.08
2023-04-27T11:59:51.859Z,48.26
2023-04-27T12:02:37.738Z,48.22
2023-04-27T12:05:23.116Z,48.43
2023-04-27T12:08:07.930Z,50.35
2023-04-27T12:10:52.778Z,50.22
2023-04-27T12:13:37.822Z,50.95
2023-04-27T12:16:23.135Z,51.79
2023-04-27T12:19:08.073Z,52.89
2023-04-27T12:21:53.975Z,51.46
2023-04-27T12:24:39.162Z,50.77
2023-04-27T12:27:24.118Z,50.60
2023-04-27T12:30:09.569Z,51.59
2023-04-27T12:32:54.448Z,51.12
2023-04-27T12:35:40.174Z,51.00
2023-04-27T12:38:25.183Z,50.30
2023-04-27T12:41:10.429Z,51.32
2023-04-27T12:43:56.577Z,51.91
2023-04-27T12:46:42.845Z,51.85
2023-04-27T12:49:28.035Z,51.73
2023-04-27T12:52:13.483Z,49.12
2023-04-27T12:54:59.189Z,48.86
2023-04-27T12:57:44.368Z,49.36
2023-04-27T13:00:29.676Z,51.59
2023-04-27T13:03:15.268Z,48.68
2023-04-27T13:06:00.329Z,51.49
2023-04-27T13:08:46.336Z,49.40
2023-04-27T13:11:31.537Z,49.28
2023-04-27T13:14:16.903Z,49.45
2023-04-27T13:17:02.530Z,49.79
2023-04-27T13:19:47.356Z,48.96
2023-04-27T13:22:32.189Z,46.91
2023-04-27T13:25:17.524Z,48.25
2023-04-27T13:28:02.627Z,50.90
2023-04-27T13:30:48.757Z,50.06
2023-04-27T13:33:39.700Z,47.24
2023-04-27T13:36:24.475Z,48.50
2023-04-27T13:39:09.431Z,48.73
2023-04-27T13:41:54.220Z,47.71
2023-04-27T13:44:39.346Z,47.57
2023-04-27T13:47:24.079Z,47.38
2023-04-27T13:50:10.928Z,49.37
2023-04-27T13:52:55.931Z,48.32
2023-04-27T13:55:41.197Z,48.35
2023-04-27T13:58:27.910Z,49.04
2023-04-27T14:01:12.711Z,47.68
2023-04-27T14:03:57.687Z,47.06
2023-04-27T14:06:42.509Z,49.57
2023-04-27T14:09:27.452Z,48.98
2023-04-27T14:12:13.475Z,48.70
2023-04-27T14:14:59.443Z,49.20
2023-04-27T14:17:44.551Z,48.22
2023-04-27T14:20:29.237Z,48.49
2023-04-27T14:23:14.212Z,53.66
2023-04-27T14:25:59.035Z,49.76
2023-04-27T14:28:44.159Z,48.28
2023-04-27T14:31:29.539Z,48.25
2023-04-27T14:34:14.662Z,48.15
2023-04-27T14:36:59.822Z,48.35
2023-04-27T14:39:45.734Z,48.15
2023-04-27T14:42:31.788Z,48.30
2023-04-27T14:45:18.708Z,47.21
2023-04-27T14:48:03.889Z,46.59
2023-04-27T14:50:49.178Z,46.11
2023-04-27T14:53:33.971Z,47.03
2023-04-27T14:56:19.147Z,46.72
2023-04-27T14:59:05.051Z,47.23
2023-04-27T15:01:50.149Z,47.54
2023-04-27T15:04:35.740Z,48.20
2023-04-27T15:07:21.292Z,47.79
2023-04-27T15:10:06.905Z,48.30
2023-04-27T15:12:51.794Z,48.95
2023-04-27T15:15:37.421Z,47.18
2023-04-27T15:18:23.241Z,47.41
2023-04-27T15:21:08.000Z,47.41
2023-04-27T15:23:52.911Z,47.71
2023-04-27T15:26:37.974Z,46.81
2023-04-27T15:29:22.803Z,47.08
2023-04-27T15:32:08.145Z,46.20
2023-04-27T15:34:52.998Z,45.48
2023-04-27T15:37:38.355Z,46.38
2023-04-27T15:40:23.226Z,46.35
2023-04-27T15:43:08.494Z,45.58
2023-04-27T15:45:53.558Z,46.36
2023-04-27T15:48:38.285Z,45.29
2023-04-27T15:51:23.251Z,46.20
2023-04-27T15:54:08.393Z,46.61
2023-04-27T15:56:53.238Z,47.23
2023-04-27T15:59:38.310Z,48.88
2023-04-27T16:02:23.379Z,49.73
2023-04-27T16:05:09.452Z,49.53
2023-04-27T16:07:54.477Z,49.22
2023-04-27T16:10:39.710Z,49.42
2023-04-27T16:13:24.878Z,50.32
2023-04-27T16:16:09.833Z,49.67
2023-04-27T16:18:54.630Z,49.45
2023-04-27T16:21:39.818Z,50.17
2023-04-27T16:24:25.083Z,49.94
2023-04-27T16:27:10.385Z,49.92
2023-04-27T16:29:56.367Z,55.66
2023-04-27T16:32:41.627Z,52.26
2023-04-27T16:35:28.972Z,52.77
2023-04-27T16:38:13.989Z,50.97
2023-04-27T16:40:58.868Z,50.65
2023-04-27T16:43:43.814Z,50.39
2023-04-27T16:46:28.793Z,50.54
2023-04-27T16:49:14.226Z,50.19
2023-04-27T16:51:59.293Z,50.98
2023-04-27T16:54:44.350Z,50.96
2023-04-27T16:57:29.225Z,49.17
2023-04-27T17:00:15.105Z,50.09
2023-04-27T17:03:00.948Z,49.84
2023-04-27T17:05:46.005Z,50.64
2023-04-27T17:08:31.126Z,50.63
2023-04-27T17:11:15.894Z,49.67
2023-04-27T17:14:01.025Z,49.07
2023-04-27T17:16:45.926Z,50.10
2023-04-27T17:19:30.816Z,49.36
2023-04-27T17:22:16.473Z,47.78
2023-04-27T17:25:01.727Z,47.76
2023-04-27T17:27:47.039Z,48.93
2023-04-27T17:30:31.929Z,47.99
2023-04-27T17:33:17.182Z,48.82
2023-04-27T17:36:02.041Z,48.47
2023-04-27T17:38:48.579Z,48.84
2023-04-27T17:41:34.873Z,48.69
2023-04-27T17:44:21.959Z,49.54
2023-04-27T17:47:06.863Z,49.13
2023-04-27T17:49:51.818Z,48.68
2023-04-27T17:52:37.466Z,48.21
2023-04-27T17:55:22.585Z,48.90
2023-04-27T17:58:07.311Z,49.04
2023-04-27T18:00:52.313Z,48.30
2023-04-27T18:03:37.551Z,48.49
2023-04-27T18:06:22.907Z,49.19
2023-04-27T18:09:07.951Z,49.87
2023-04-27T18:11:52.923Z,50.45
2023-04-27T18:14:38.502Z,50.57
2023-04-27T18:17:24.082Z,51.44
2023-04-27T18:20:10.487Z,51.52
2023-04-27T18:22:56.517Z,52.73
2023-04-27T18:25:41.486Z,53.96
2023-04-27T18:28:26.517Z,59.00
2023-04-27T18:31:19.033Z,60.83
2023-04-27T18:34:04.245Z,59.92
2023-04-27T18:36:52.095Z,60.55
2023-04-27T18:39:37.360Z,66.81
2023-04-27T18:42:23.311Z,62.55
2023-04-27T18:45:08.906Z,62.81
2023-04-27T18:47:53.790Z,61.85
2023-04-27T18:50:38.842Z,62.38
2023-04-27T18:53:23.637Z,63.86
2023-04-27T18:56:10.079Z,77.88
2023-04-27T18:58:55.820Z,66.93
2023-04-27T19:01:41.036Z,67.51
2023-04-27T19:04:26.191Z,66.86
2023-04-27T19:07:11.383Z,67.31
2023-04-27T19:09:56.210Z,67.53
2023-04-27T19:12:41.289Z,71.06
2023-04-27T19:15:26.312Z,69.76
2023-04-27T19:18:11.824Z,70.72
2023-04-27T19:20:57.942Z,75.46
2023-04-27T19:23:45.036Z,85.06
2023-04-27T19:26:30.037Z,76.97
2023-04-27T19:29:15.397Z,76.83
2023-04-27T19:32:02.000Z,77.54
2023-04-27T19:34:47.570Z,75.92
2023-04-27T19:37:32.717Z,86.63
2023-04-27T19:40:18.283Z,79.90
2023-04-27T19:43:05.495Z,84.51
2023-04-27T19:45:51.102Z,79.07
2023-04-27T19:48:36.503Z,78.36
2023-04-27T19:51:21.820Z,92.11
2023-04-27T19:54:07.002Z,93.44
2023-04-27T19:56:52.089Z,83.89
2023-04-27T19:59:37.810Z,83.44
2023-04-27T20:02:23.219Z,86.09
2023-04-27T20:05:08.558Z,80.39
2023-04-27T20:07:53.953Z,83.21
2023-04-27T20:10:40.871Z,92.58
2023-04-27T20:13:26.203Z,83.33
2023-04-27T20:16:10.942Z,82.80
2023-04-27T20:18:55.855Z,100.00
2023-04-27T20:21:41.020Z,85.47
2023-04-27T20:24:26.846Z,86.15
2023-04-27T20:27:11.870Z,95.95
2023-04-27T20:29:56.607Z,86.27
2023-04-27T20:32:41.705Z,82.56
2023-04-27T20:35:27.561Z,82.88
2023-04-27T20:38:12.966Z,82.74
2023-04-27T20:40:58.468Z,83.41
2023-04-27T20:43:44.614Z,82.44
2023-04-27T20:46:29.749Z,83.74
2023-04-27T20:49:18.964Z,83.92
2023-04-27T20:52:06.802Z,82.84
2023-04-27T20:54:52.074Z,84.68
2023-04-27T20:57:37.107Z,90.07
2023-04-27T21:00:21.858Z,96.15
2023-04-27T21:03:07.988Z,99.25
2023-04-27T21:05:53.019Z,89.16
2023-04-27T21:08:38.521Z,93.89
2023-04-27T21:11:23.620Z,91.02
2023-04-27T21:14:08.524Z,89.34
2023-04-27T21:16:53.459Z,89.90
2023-04-27T21:19:38.413Z,100.00
2023-04-27T21:22:23.563Z,100.00
2023-04-27T21:25:08.716Z,100.00
2023-04-27T21:27:53.833Z,100.00
2023-04-27T21:30:39.725Z,94.86
2023-04-27T21:33:24.714Z,100.00
2023-04-27T21:36:09.834Z,100.00
2023-04-27T21:38:54.614Z,100.00
2023-04-27T21:41:40.890Z,100.00
2023-04-27T21:44:25.785Z,100.00
2023-04-27T21:47:11.225Z,100.00
2023-04-27T21:49:56.327Z,100.00
2023-04-27T21:52:41.369Z,100.00
2023-04-27T21:55:26.392Z,100.00
2023-04-27T21:58:11.522Z,100.00
2023-04-27T22:00:56.422Z,100.00
2023-04-27T22:03:41.874Z,100.00
2023-04-27T22:06:27.462Z,100.00
2023-04-27T22:09:12.366Z,100.00
2023-04-27T22:11:57.680Z,100.00
2023-04-27T22:14:42.771Z,100.00
2023-04-27T22:17:27.769Z,100.00
2023-04-27T22:20:14.221Z,100.00
2023-04-27T22:22:59.196Z,100.00
2023-04-27T22:25:44.369Z,100.00
2023-04-27T22:28:29.216Z,100.00
2023-04-27T22:31:14.564Z,100.00
2023-04-27T22:33:59.649Z,100.00
2023-04-27T22:36:44.825Z,100.00
2023-04-27T22:39:30.396Z,100.00
2023-04-27T22:42:15.588Z,100.00
2023-04-27T22:45:00.362Z,100.00
2023-04-27T22:47:45.829Z,100.00
2023-04-27T22:50:30.775Z,100.00
2023-04-27T22:53:16.050Z,100.00
2023-04-27T22:56:00.923Z,100.00
2023-04-27T22:58:46.568Z,100.00
2023-04-27T23:01:31.652Z,100.00
2023-04-27T23:04:17.583Z,100.00
2023-04-27T23:07:03.725Z,100.00
2023-04-27T23:09:49.630Z,100.00
2023-04-27T23:12:34.957Z,100.00
2023-04-27T23:15:20.677Z,100.00
2023-04-27T23:18:06.228Z,100.00
2023-04-27T23:20:54.811Z,100.00
2023-04-27T23:23:39.916Z,100.00
2023-04-27T23:26:24.649Z,100.00
2023-04-27T23:29:09.789Z,100.00
2023-04-27T23:31:54.505Z,100.00
2023-04-27T23:34:39.697Z,100.00
2023-04-27T23:37:24.831Z,100.00
2023-04-27T23:40:10.070Z,100.00
2023-04-27T23:42:55.683Z,100.00
2023-04-27T23:45:40.900Z,100.00
2023-04-27T23:48:25.660Z,100.00
2023-04-27T23:51:10.858Z,100.00
2023-04-27T23:53:56.311Z,100.00
2023-04-27T23:56:41.396Z,100.00
2023-04-27T23:59:26.306Z,100.00
